Time;durP1;ratioP1;P1;durP2;ratioP2;P2;SDS_P1;SDS_P2;PMS_P1;PMS_P2;Temp;Humidity;BMP_temperature;BMP_pressure;BME280_temperature;BME280_humidity;BME280_pressure;Samples;Min_cycle;Max_cycle;Signal;HPM_P1;HPM_P2
2023/01/23 00:00:37;;;;;;;;;31.75;21.00;;;;;;;;5075843;28;63836;-85
2023/01/23 00:03:03;;;;;;;;;31.00;27.00;;;;;;;;5083965;28;61690;-85
2023/01/23 00:05:28;;;;;;;;;36.75;25.00;;;;;;;;5084053;28;62008;-84
2023/01/23 00:07:53;;;;;;;;;39.75;27.25;;;;;;;;5085587;28;61837;-85
2023/01/23 00:10:19;;;;;;;;;42.25;27.50;;;;;;;;5084143;28;62016;-85
2023/01/23 00:12:44;;;;;;;;;36.25;23.00;;;;;;;;5085305;28;61941;-84
2023/01/23 00:15:11;;;;;;;;;38.25;29.50;;;;;;;;5085485;28;61850;-84
2023/01/23 00:17:36;;;;;;;;;28.00;15.75;;;;;;;;5085342;28;61838;-84
2023/01/23 00:20:03;;;;;;;;;35.75;29.25;;;;;;;;5084793;28;61923;-86
2023/01/23 00:22:29;;;;;;;;;36.50;26.25;;;;;;;;5085072;28;62248;-84
2023/01/23 00:24:54;;;;;;;;;24.50;22.50;;;;;;;;5085293;28;62550;-84
2023/01/23 00:27:19;;;;;;;;;41.25;25.25;;;;;;;;5084963;28;61770;-84
2023/01/23 00:29:46;;;;;;;;;35.75;28.25;;;;;;;;5084672;28;61776;-84
2023/01/23 00:32:11;;;;;;;;;35.25;26.50;;;;;;;;5085090;28;61606;-84
2023/01/23 00:34:37;;;;;;;;;36.75;26.75;;;;;;;;5083441;28;62005;-84
2023/01/23 00:37:02;;;;;;;;;37.00;28.00;;;;;;;;5085334;28;61796;-86
2023/01/23 00:39:27;;;;;;;;;31.75;26.50;;;;;;;;5081596;28;64620;-86
2023/01/23 00:41:53;;;;;;;;;43.25;30.50;;;;;;;;5083513;28;61867;-86
2023/01/23 00:44:18;;;;;;;;;39.75;22.75;;;;;;;;5084756;28;61830;-86
2023/01/23 00:46:44;;;;;;;;;39.50;27.50;;;;;;;;5085121;28;61881;-86
2023/01/23 00:49:09;;;;;;;;;32.50;25.50;;;;;;;;5082831;28;64783;-86
2023/01/23 00:51:34;;;;;;;;;42.50;27.00;;;;;;;;5084540;28;61777;-85
2023/01/23 00:54:00;;;;;;;;;32.25;28.75;;;;;;;;5084712;28;61761;-85
2023/01/23 00:56:25;;;;;;;;;40.00;25.75;;;;;;;;5083350;28;61836;-85
2023/01/23 00:58:51;;;;;;;;;30.75;24.25;;;;;;;;5073403;28;64603;-85
2023/01/23 01:01:16;;;;;;;;;42.25;29.50;;;;;;;;5064531;28;61746;-85
2023/01/23 01:03:43;;;;;;;;;30.25;23.75;;;;;;;;5059086;28;61923;-85
2023/01/23 01:06:08;;;;;;;;;42.25;23.25;;;;;;;;5064489;28;61906;-85
2023/01/23 01:08:34;;;;;;;;;39.75;27.00;;;;;;;;5063158;28;62756;-85
2023/01/23 01:10:59;;;;;;;;;37.50;30.00;;;;;;;;5062509;28;62136;-86
2023/01/23 01:13:25;;;;;;;;;23.50;17.75;;;;;;;;5064157;28;61745;-85
2023/01/23 01:15:51;;;;;;;;;41.00;26.50;;;;;;;;5046098;28;62053;-85
2023/01/23 01:18:16;;;;;;;;;29.50;17.50;;;;;;;;5058762;28;63989;-86
2023/01/23 01:20:42;;;;;;;;;27.50;23.00;;;;;;;;5063798;28;61947;-82
2023/01/23 01:23:07;;;;;;;;;39.75;24.00;;;;;;;;5045820;28;61861;-86
2023/01/23 01:25:33;;;;;;;;;41.50;26.50;;;;;;;;5064015;28;61679;-86
2023/01/23 01:27:58;;;;;;;;;33.25;27.75;;;;;;;;5045354;28;63855;-85
2023/01/23 01:30:26;;;;;;;;;45.75;25.25;;;;;;;;5056268;28;61935;-85
2023/01/23 01:32:52;;;;;;;;;35.75;27.00;;;;;;;;5063740;28;61858;-85
2023/01/23 01:35:18;;;;;;;;;51.25;30.00;;;;;;;;5045786;28;61827;-86
2023/01/23 01:37:43;;;;;;;;;37.25;26.50;;;;;;;;5062807;28;62879;-85
2023/01/23 01:40:12;;;;;;;;;45.50;28.75;;;;;;;;5045616;28;62473;-86
2023/01/23 01:42:40;;;;;;;;;33.75;28.00;;;;;;;;5063333;28;61817;-86
2023/01/23 01:45:06;;;;;;;;;35.00;28.75;;;;;;;;5045815;28;61898;-85
2023/01/23 01:47:31;;;;;;;;;35.75;21.75;;;;;;;;5060778;28;63737;-85
2023/01/23 01:50:01;;;;;;;;;36.25;22.25;;;;;;;;5061937;28;61928;-85
2023/01/23 01:52:26;;;;;;;;;30.50;26.00;;;;;;;;5061513;28;61765;-85
2023/01/23 01:55:00;;;;;;;;;33.50;23.25;;;;;;;;5058023;28;61862;-86
2023/01/23 01:57:28;;;;;;;;;30.75;21.25;;;;;;;;5062590;28;62040;-86
2023/01/23 02:00:06;;;;;;;;;37.00;23.00;;;;;;;;5063018;28;61774;-86
2023/01/23 02:02:40;;;;;;;;;30.25;22.25;;;;;;;;5063300;28;62214;-85
2023/01/23 02:05:08;;;;;;;;;30.25;26.25;;;;;;;;5060480;28;62012;-86
2023/01/23 02:07:43;;;;;;;;;40.75;20.75;;;;;;;;5044381;28;64031;-85
2023/01/23 02:10:09;;;;;;;;;36.25;23.75;;;;;;;;5045181;28;61851;-85
2023/01/23 02:12:45;;;;;;;;;46.00;31.25;;;;;;;;5116334;27;61688;-73
2023/01/23 02:15:10;;;;;;;;;37.50;26.00;;;;;;;;5118970;27;61826;-73
2023/01/23 02:17:37;;;;;;;;;36.50;26.50;;;;;;;;5120377;27;62134;-74
2023/01/23 02:20:02;;;;;;;;;45.50;27.50;;;;;;;;5119053;27;61838;-74
2023/01/23 02:22:33;;;;;;;;;37.50;24.75;;;;;;;;5119099;27;61786;-73
2023/01/23 02:25:05;;;;;;;;;43.25;29.50;;;;;;;;5120174;27;61810;-73
2023/01/23 02:27:30;;;;;;;;;30.00;20.00;;;;;;;;5120349;27;61721;-74
2023/01/23 02:29:55;;;;;;;;;37.75;28.00;;;;;;;;5119368;27;61794;-74
2023/01/23 02:32:23;;;;;;;;;38.75;27.00;;;;;;;;5120063;27;62059;-73
2023/01/23 02:34:50;;;;;;;;;29.50;19.75;;;;;;;;5119327;27;62096;-73
2023/01/23 02:37:15;;;;;;;;;36.50;28.00;;;;;;;;5120264;27;61712;-73
2023/01/23 02:39:41;;;;;;;;;38.75;28.25;;;;;;;;5118438;27;62817;-73
2023/01/23 02:42:06;;;;;;;;;37.00;25.50;;;;;;;;5119805;27;61843;-73
2023/01/23 02:44:31;;;;;;;;;40.00;29.75;;;;;;;;5120052;27;61939;-73
2023/01/23 02:47:01;;;;;;;;;30.25;22.50;;;;;;;;5119942;27;61812;-74
2023/01/23 02:49:27;;;;;;;;;37.00;27.50;;;;;;;;5118445;27;61924;-74
2023/01/23 02:51:53;;;;;;;;;38.25;25.25;;;;;;;;5118276;27;61841;-73
2023/01/23 02:54:19;;;;;;;;;45.25;32.75;;;;;;;;5118407;27;61862;-73
2023/01/23 02:56:45;;;;;;;;;43.00;30.25;;;;;;;;5119440;27;61982;-73
2023/01/23 03:01:54;;;;;;;;;27.50;21.00;;;;;;;;5119386;27;61764;-73
2023/01/23 03:04:20;;;;;;;;;41.50;27.25;;;;;;;;5118912;27;62056;-73
2023/01/23 03:06:45;;;;;;;;;40.50;28.75;;;;;;;;5119491;27;61882;-73
2023/01/23 03:09:12;;;;;;;;;42.25;26.75;;;;;;;;5117788;27;61808;-74
2023/01/23 03:11:38;;;;;;;;;39.00;29.25;;;;;;;;5118967;27;62079;-73
2023/01/23 03:14:05;;;;;;;;;41.50;28.00;;;;;;;;5118176;27;61797;-73
2023/01/23 03:16:31;;;;;;;;;39.75;30.00;;;;;;;;5119711;27;61781;-73
2023/01/23 03:18:58;;;;;;;;;31.00;27.00;;;;;;;;5117336;27;61972;-73
2023/01/23 03:21:23;;;;;;;;;35.50;26.50;;;;;;;;5119288;27;61730;-73
2023/01/23 03:23:49;;;;;;;;;43.25;31.50;;;;;;;;5106935;27;61662;-73
2023/01/23 03:26:14;;;;;;;;;44.25;30.50;;;;;;;;5105911;27;61692;-73
2023/01/23 03:31:23;;;;;;;;;34.75;26.75;;;;;;;;5105022;27;61758;-74
2023/01/23 03:33:49;;;;;;;;;43.50;33.00;;;;;;;;5103473;27;61773;-74
2023/01/23 03:36:14;;;;;;;;;33.25;24.75;;;;;;;;5105620;27;61817;-73
2023/01/23 03:41:23;;;;;;;;;37.25;29.50;;;;;;;;5104143;27;62049;-73
2023/01/23 03:41:27;;;;;;;;;37.25;32.25;;;;;;;;5105282;27;61688;-74
2023/01/23 03:43:53;;;;;;;;;45.25;33.50;;;;;;;;5105210;27;61766;-73
2023/01/23 03:46:19;;;;;;;;;41.00;24.00;;;;;;;;5104764;27;61830;-73
2023/01/23 03:48:44;;;;;;;;;40.00;26.50;;;;;;;;5104015;27;62860;-74
2023/01/23 03:51:09;;;;;;;;;42.00;31.75;;;;;;;;5104974;27;61806;-73
2023/01/23 03:53:34;;;;;;;;;40.25;31.25;;;;;;;;5105187;27;61901;-73
2023/01/23 03:56:00;;;;;;;;;46.25;29.50;;;;;;;;5105201;27;62946;-74
2023/01/23 03:58:26;;;;;;;;;39.00;27.25;;;;;;;;5102648;27;61926;-74
2023/01/23 04:00:51;;;;;;;;;29.00;24.50;;;;;;;;5102627;27;61778;-74
2023/01/23 04:03:16;;;;;;;;;44.50;30.25;;;;;;;;5104819;27;61754;-74
2023/01/23 04:05:42;;;;;;;;;51.00;32.50;;;;;;;;5105004;27;61917;-73
2023/01/23 04:08:07;;;;;;;;;42.50;31.25;;;;;;;;5103675;27;61896;-74
2023/01/23 04:10:32;;;;;;;;;33.00;29.25;;;;;;;;5104584;27;62005;-73
2023/01/23 04:12:57;;;;;;;;;38.25;29.75;;;;;;;;5104530;27;61793;-73
2023/01/23 04:15:23;;;;;;;;;38.75;33.25;;;;;;;;5103918;27;61894;-74
2023/01/23 04:17:48;;;;;;;;;34.00;27.25;;;;;;;;5103868;27;61750;-74
2023/01/23 04:20:13;;;;;;;;;44.00;30.00;;;;;;;;5104454;27;62063;-73
2023/01/23 04:22:39;;;;;;;;;37.25;33.75;;;;;;;;5104888;27;61780;-74
2023/01/23 04:25:04;;;;;;;;;31.00;27.75;;;;;;;;5104525;27;62335;-74
2023/01/23 04:27:30;;;;;;;;;45.75;31.25;;;;;;;;5103894;27;62470;-73
2023/01/23 04:29:56;;;;;;;;;48.00;31.00;;;;;;;;5103755;27;61759;-74
2023/01/23 04:32:22;;;;;;;;;34.00;30.25;;;;;;;;5104486;27;61866;-73
2023/01/23 04:34:47;;;;;;;;;34.75;28.25;;;;;;;;5102958;27;62459;-73
2023/01/23 04:37:12;;;;;;;;;40.50;24.75;;;;;;;;5104133;27;62450;-73
2023/01/23 04:39:38;;;;;;;;;32.75;26.00;;;;;;;;5103606;27;61929;-74
2023/01/23 04:42:03;;;;;;;;;40.75;29.50;;;;;;;;5102721;27;61762;-73
2023/01/23 04:44:28;;;;;;;;;42.00;33.75;;;;;;;;5104228;27;61882;-74
2023/01/23 04:46:54;;;;;;;;;45.75;35.25;;;;;;;;5103205;27;61864;-74
2023/01/23 04:49:22;;;;;;;;;42.00;31.50;;;;;;;;5102145;27;61907;-73
2023/01/23 04:51:48;;;;;;;;;36.50;25.25;;;;;;;;5104127;27;61762;-73
2023/01/23 04:54:14;;;;;;;;;36.75;33.75;;;;;;;;5104399;27;61625;-74
2023/01/23 04:56:40;;;;;;;;;23.25;13.25;;;;;;;;5103547;27;61815;-73
2023/01/23 04:59:05;;;;;;;;;30.75;26.25;;;;;;;;5102894;27;61630;-74
2023/01/23 05:01:32;;;;;;;;;36.50;27.50;;;;;;;;5102664;27;61796;-74
2023/01/23 05:03:57;;;;;;;;;46.50;30.75;;;;;;;;5104025;27;61889;-74
2023/01/23 05:06:23;;;;;;;;;45.50;33.50;;;;;;;;5103421;27;62620;-74
2023/01/23 05:08:48;;;;;;;;;48.50;29.50;;;;;;;;5103252;27;61809;-74
2023/01/23 05:11:13;;;;;;;;;37.00;28.25;;;;;;;;5102137;27;61964;-74
2023/01/23 05:13:39;;;;;;;;;40.25;29.75;;;;;;;;5103656;27;61847;-73
2023/01/23 05:16:04;;;;;;;;;46.75;30.00;;;;;;;;5102752;27;62029;-74
2023/01/23 05:18:29;;;;;;;;;43.50;28.50;;;;;;;;5102183;27;61884;-73
2023/01/23 05:20:55;;;;;;;;;51.75;33.50;;;;;;;;5102216;27;61904;-73
2023/01/23 05:23:20;;;;;;;;;38.50;30.50;;;;;;;;5104140;27;61897;-74
2023/01/23 05:25:45;;;;;;;;;44.00;32.50;;;;;;;;5103100;27;62598;-74
2023/01/23 05:28:11;;;;;;;;;41.25;30.25;;;;;;;;5102970;27;61956;-73
2023/01/23 05:30:36;;;;;;;;;29.25;25.00;;;;;;;;5103583;27;62121;-74
2023/01/23 05:33:01;;;;;;;;;56.50;40.50;;;;;;;;5101994;27;62017;-73
2023/01/23 05:35:27;;;;;;;;;48.25;27.75;;;;;;;;5103042;27;62609;-74
2023/01/23 05:37:52;;;;;;;;;47.00;30.50;;;;;;;;5103019;27;61834;-74
2023/01/23 05:40:18;;;;;;;;;45.75;33.00;;;;;;;;5101953;27;62200;-73
2023/01/23 05:42:44;;;;;;;;;43.50;31.25;;;;;;;;5103116;27;62037;-74
2023/01/23 05:45:10;;;;;;;;;38.25;29.75;;;;;;;;5102479;27;61732;-73
2023/01/23 05:47:36;;;;;;;;;39.75;30.50;;;;;;;;5103542;27;62199;-73
2023/01/23 05:50:02;;;;;;;;;45.25;36.25;;;;;;;;5101598;27;61827;-74
2023/01/23 05:52:27;;;;;;;;;44.75;32.25;;;;;;;;5103266;27;61917;-73
2023/01/23 05:54:52;;;;;;;;;36.00;28.25;;;;;;;;5102820;27;61791;-74
2023/01/23 05:57:18;;;;;;;;;48.50;28.25;;;;;;;;5102712;27;61990;-73
2023/01/23 05:59:43;;;;;;;;;29.25;25.00;;;;;;;;5101659;27;61862;-73
2023/01/23 06:02:08;;;;;;;;;39.25;30.75;;;;;;;;5103084;27;61766;-74
2023/01/23 06:04:34;;;;;;;;;33.25;31.00;;;;;;;;5100567;27;63853;-72
2023/01/23 06:06:59;;;;;;;;;43.00;29.50;;;;;;;;5103000;27;62022;-72
2023/01/23 06:09:24;;;;;;;;;39.25;31.50;;;;;;;;5101288;27;62113;-74
2023/01/23 06:11:49;;;;;;;;;48.00;31.75;;;;;;;;5102576;27;61876;-76
2023/01/23 06:14:15;;;;;;;;;25.50;23.50;;;;;;;;5102404;27;62068;-76
2023/01/23 06:16:40;;;;;;;;;34.00;24.50;;;;;;;;5101990;27;61869;-74
2023/01/23 06:19:05;;;;;;;;;34.50;26.00;;;;;;;;5102137;27;61751;-75
2023/01/23 06:21:30;;;;;;;;;30.25;27.00;;;;;;;;5103319;27;61913;-74
2023/01/23 06:23:57;;;;;;;;;40.25;28.50;;;;;;;;5102432;27;61976;-73
2023/01/23 06:26:22;;;;;;;;;31.00;19.25;;;;;;;;5102291;27;61763;-73
2023/01/23 06:28:48;;;;;;;;;43.00;22.00;;;;;;;;5100946;27;61886;-77
2023/01/23 06:31:14;;;;;;;;;32.75;27.50;;;;;;;;5101322;27;61844;-77
2023/01/23 06:33:44;;;;;;;;;25.50;24.75;;;;;;;;5101732;27;62314;-75
2023/01/23 06:36:10;;;;;;;;;42.25;24.50;;;;;;;;5102099;27;61800;-74
2023/01/23 06:38:35;;;;;;;;;36.50;25.50;;;;;;;;5102043;27;61828;-74
2023/01/23 06:41:00;;;;;;;;;41.25;27.00;;;;;;;;5101196;27;61810;-74
2023/01/23 06:43:26;;;;;;;;;31.50;28.50;;;;;;;;5100718;27;62602;-74
2023/01/23 06:45:51;;;;;;;;;28.00;24.50;;;;;;;;5099937;27;62629;-72
2023/01/23 06:48:17;;;;;;;;;41.25;24.50;;;;;;;;5101002;27;62048;-72
2023/01/23 06:50:42;;;;;;;;;33.25;26.00;;;;;;;;5102154;27;62002;-72
2023/01/23 06:53:08;;;;;;;;;34.75;26.00;;;;;;;;5101351;27;61683;-72
2023/01/23 06:55:34;;;;;;;;;40.75;28.25;;;;;;;;5100617;27;61963;-72
2023/01/23 06:57:59;;;;;;;;;51.25;29.75;;;;;;;;5103234;27;62347;-73
2023/01/23 07:00:25;;;;;;;;;45.25;30.50;;;;;;;;5105624;27;62684;-72
2023/01/23 07:02:51;;;;;;;;;39.75;30.25;;;;;;;;5105346;27;61887;-72
2023/01/23 07:05:17;;;;;;;;;37.50;29.75;;;;;;;;5105367;27;62052;-73
2023/01/23 07:07:42;;;;;;;;;43.75;31.75;;;;;;;;5105362;27;62083;-73
2023/01/23 07:10:08;;;;;;;;;35.50;26.00;;;;;;;;5105348;27;61867;-73
2023/01/23 07:12:33;;;;;;;;;44.00;28.75;;;;;;;;5104721;27;61793;-72
2023/01/23 07:14:59;;;;;;;;;37.00;30.00;;;;;;;;5105611;27;62427;-72
2023/01/23 07:17:24;;;;;;;;;32.00;28.50;;;;;;;;5103968;27;61940;-72
2023/01/23 07:19:49;;;;;;;;;48.00;29.00;;;;;;;;5105467;27;62048;-72
2023/01/23 07:22:16;;;;;;;;;45.25;32.50;;;;;;;;5104763;27;62188;-74
2023/01/23 07:24:41;;;;;;;;;45.00;30.25;;;;;;;;5105349;27;61928;-73
2023/01/23 07:27:06;;;;;;;;;48.00;30.75;;;;;;;;5105636;27;61971;-73
2023/01/23 07:29:31;;;;;;;;;55.75;34.75;;;;;;;;5103998;27;62069;-73
2023/01/23 07:31:57;;;;;;;;;47.25;34.00;;;;;;;;5104761;27;61978;-73
2023/01/23 07:34:22;;;;;;;;;37.50;29.00;;;;;;;;5104506;27;62282;-74
2023/01/23 07:36:48;;;;;;;;;46.00;36.25;;;;;;;;5103503;27;61753;-74
2023/01/23 07:39:14;;;;;;;;;39.50;29.50;;;;;;;;5104165;27;62214;-71
2023/01/23 07:41:40;;;;;;;;;44.00;31.25;;;;;;;;5100554;27;62067;-75
2023/01/23 07:44:05;;;;;;;;;41.25;31.00;;;;;;;;5109220;27;62074;-75
2023/01/23 07:46:31;;;;;;;;;45.75;31.50;;;;;;;;5102220;27;61880;-74
2023/01/23 07:48:56;;;;;;;;;47.25;33.00;;;;;;;;5102317;27;61938;-75
2023/01/23 07:51:21;;;;;;;;;46.00;37.00;;;;;;;;5101232;27;63707;-74
2023/01/23 07:53:47;;;;;;;;;47.00;31.75;;;;;;;;5102148;27;61782;-75
2023/01/23 07:56:12;;;;;;;;;38.00;25.50;;;;;;;;5104615;27;61929;-75
2023/01/23 07:58:37;;;;;;;;;45.50;31.50;;;;;;;;5098437;27;61691;-75
2023/01/23 08:01:07;;;;;;;;;45.50;34.25;;;;;;;;5082474;28;63458;-75
2023/01/23 08:03:33;;;;;;;;;48.50;34.50;;;;;;;;5083902;28;61905;-75
2023/01/23 08:05:58;;;;;;;;;39.50;26.25;;;;;;;;5082997;28;61913;-75
2023/01/23 08:08:24;;;;;;;;;37.50;36.25;;;;;;;;5083530;28;61746;-75
2023/01/23 08:10:49;;;;;;;;;53.00;37.25;;;;;;;;5091498;27;61961;-75
2023/01/23 08:13:14;;;;;;;;;33.75;24.00;;;;;;;;5103305;27;61847;-75
2023/01/23 08:15:40;;;;;;;;;43.50;26.25;;;;;;;;5102899;27;61727;-75
2023/01/23 08:18:05;;;;;;;;;46.25;30.00;;;;;;;;5102945;27;62121;-75
2023/01/23 08:20:31;;;;;;;;;34.25;27.50;;;;;;;;5099082;27;62597;-75
2023/01/23 08:22:57;;;;;;;;;39.75;28.00;;;;;;;;5087520;27;61988;-75
2023/01/23 08:25:23;;;;;;;;;50.75;31.00;;;;;;;;5087822;27;62095;-75
2023/01/23 08:27:48;;;;;;;;;45.75;28.75;;;;;;;;5087362;27;61750;-75
2023/01/23 08:30:14;;;;;;;;;40.00;30.50;;;;;;;;5082066;27;62344;-75
2023/01/23 08:32:39;;;;;;;;;37.25;32.75;;;;;;;;5093255;27;62177;-75
2023/01/23 08:35:04;;;;;;;;;26.25;19.00;;;;;;;;5101060;27;62331;-75
2023/01/23 08:37:32;;;;;;;;;47.50;26.00;;;;;;;;5095784;27;61864;-75
2023/01/23 08:39:57;;;;;;;;;41.25;30.25;;;;;;;;5100412;27;61704;-75
2023/01/23 08:42:22;;;;;;;;;29.50;24.50;;;;;;;;5097114;27;62016;-75
2023/01/23 08:44:47;;;;;;;;;37.50;26.75;;;;;;;;5097641;27;61998;-74
2023/01/23 08:47:13;;;;;;;;;41.00;30.25;;;;;;;;5089712;27;61889;-75
2023/01/23 08:49:38;;;;;;;;;42.00;30.00;;;;;;;;5085257;27;61982;-75
2023/01/23 08:52:05;;;;;;;;;38.50;27.25;;;;;;;;5091659;27;61952;-75
2023/01/23 08:54:30;;;;;;;;;37.25;26.50;;;;;;;;5088398;27;62061;-76
2023/01/23 08:56:55;;;;;;;;;36.00;23.25;;;;;;;;5082440;27;61704;-76
2023/01/23 08:59:21;;;;;;;;;33.00;25.75;;;;;;;;5098605;27;62092;-75
2023/01/23 09:01:46;;;;;;;;;38.00;28.50;;;;;;;;5097501;27;61873;-75
2023/01/23 09:04:12;;;;;;;;;31.00;23.75;;;;;;;;5098060;27;62148;-75
2023/01/23 09:06:37;;;;;;;;;33.25;28.00;;;;;;;;5099792;27;62211;-74
2023/01/23 09:09:06;;;;;;;;;30.50;23.00;;;;;;;;5097976;27;62527;-76
2023/01/23 09:11:31;;;;;;;;;31.50;25.25;;;;;;;;5098884;27;62055;-75
2023/01/23 09:13:57;;;;;;;;;24.75;20.25;;;;;;;;5100864;27;62039;-74
2023/01/23 09:16:22;;;;;;;;;31.75;27.25;;;;;;;;5095541;27;61982;-75
2023/01/23 09:18:48;;;;;;;;;44.75;24.00;;;;;;;;5096966;27;62800;-75
2023/01/23 09:21:15;;;;;;;;;31.25;26.75;;;;;;;;5097751;27;62213;-76
2023/01/23 09:23:41;;;;;;;;;47.75;29.25;;;;;;;;5095793;27;62219;-75
2023/01/23 09:26:07;;;;;;;;;35.25;28.00;;;;;;;;5086498;27;61981;-75
2023/01/23 09:28:34;;;;;;;;;36.25;25.50;;;;;;;;5096195;27;62047;-75
2023/01/23 09:31:03;;;;;;;;;43.75;31.75;;;;;;;;5086260;27;62009;-74
2023/01/23 09:33:28;;;;;;;;;33.00;27.00;;;;;;;;5096384;27;61885;-75
2023/01/23 09:35:53;;;;;;;;;26.00;21.75;;;;;;;;5097386;27;61947;-75
2023/01/23 09:38:19;;;;;;;;;22.00;13.25;;;;;;;;5097239;27;62774;-75
2023/01/23 09:40:49;;;;;;;;;35.25;26.00;;;;;;;;5099112;27;61711;-75
2023/01/23 09:43:35;;;;;;;;;34.50;21.75;;;;;;;;5109385;27;62082;-75
2023/01/23 09:46:06;;;;;;;;;33.25;22.25;;;;;;;;5097893;27;61816;-74
2023/01/23 09:48:34;;;;;;;;;28.25;20.50;;;;;;;;5083625;27;64353;-75
2023/01/23 09:51:03;;;;;;;;;19.50;13.75;;;;;;;;5085472;27;61783;-75
2023/01/23 09:53:36;;;;;;;;;24.00;20.75;;;;;;;;5092990;27;61833;-74
2023/01/23 09:56:16;;;;;;;;;29.25;23.00;;;;;;;;5094266;27;62043;-74
2023/01/23 09:58:57;;;;;;;;;37.50;27.25;;;;;;;;5082443;27;62887;-75
2023/01/23 10:01:25;;;;;;;;;42.50;26.75;;;;;;;;5080895;27;61901;-75
2023/01/23 10:03:50;;;;;;;;;37.00;24.25;;;;;;;;5082460;27;61988;-75
2023/01/23 10:06:19;;;;;;;;;27.75;20.25;;;;;;;;5089784;27;61926;-75
2023/01/23 10:08:59;;;;;;;;;35.00;25.50;;;;;;;;5094832;27;62358;-75
2023/01/23 10:11:43;;;;;;;;;35.25;23.50;;;;;;;;5097026;27;61910;-74
2023/01/23 10:14:15;;;;;;;;;28.00;23.75;;;;;;;;5098066;27;61859;-75
2023/01/23 10:16:49;;;;;;;;;37.50;22.25;;;;;;;;5096499;27;61954;-75
2023/01/23 10:19:33;;;;;;;;;29.75;25.00;;;;;;;;5088198;27;64658;-75
2023/01/23 10:22:07;;;;;;;;;32.25;27.50;;;;;;;;5091008;27;61897;-74
2023/01/23 10:24:42;;;;;;;;;38.00;28.00;;;;;;;;5084304;27;61940;-75
2023/01/23 10:27:15;;;;;;;;;41.00;30.25;;;;;;;;5096560;27;61944;-75
2023/01/23 10:29:43;;;;;;;;;37.50;30.00;;;;;;;;5097578;27;63757;-75
2023/01/23 10:32:25;;;;;;;;;39.00;27.75;;;;;;;;5096487;27;62129;-75
2023/01/23 10:34:54;;;;;;;;;35.25;28.00;;;;;;;;5100869;27;61984;-75
2023/01/23 10:37:24;;;;;;;;;36.50;25.50;;;;;;;;5101229;27;62138;-75
2023/01/23 10:39:53;;;;;;;;;28.25;23.25;;;;;;;;5101704;27;62922;-75
2023/01/23 10:42:21;;;;;;;;;38.75;24.00;;;;;;;;5101093;27;62158;-75
2023/01/23 10:44:46;;;;;;;;;31.75;21.00;;;;;;;;5098632;27;62089;-75
2023/01/23 10:47:16;;;;;;;;;37.00;26.50;;;;;;;;5100248;27;62173;-75
2023/01/23 10:49:43;;;;;;;;;35.75;22.25;;;;;;;;5098014;27;64225;-75
2023/01/23 10:52:27;;;;;;;;;29.75;20.50;;;;;;;;5101725;27;62135;-75
2023/01/23 10:54:52;;;;;;;;;27.75;21.50;;;;;;;;5100953;27;62518;-75
2023/01/23 10:57:25;;;;;;;;;34.50;27.50;;;;;;;;5098453;27;62220;-75
2023/01/23 11:00:07;;;;;;;;;32.50;26.25;;;;;;;;5097129;27;64652;-75
2023/01/23 11:02:33;;;;;;;;;22.25;16.50;;;;;;;;5098383;27;62071;-75
2023/01/23 11:04:59;;;;;;;;;28.75;23.75;;;;;;;;5097169;27;61896;-74
2023/01/23 11:07:26;;;;;;;;;25.75;21.50;;;;;;;;5085721;27;61866;-75
2023/01/23 11:09:54;;;;;;;;;38.00;26.25;;;;;;;;5094582;27;61687;-77
2023/01/23 11:12:30;;;;;;;;;42.25;33.50;;;;;;;;5087681;27;61894;-75
2023/01/23 11:15:27;;;;;;;;;34.50;25.50;;;;;;;;5095111;27;61917;-74
2023/01/23 11:17:54;;;;;;;;;33.75;23.75;;;;;;;;5077179;28;62124;-73
2023/01/23 11:20:19;;;;;;;;;32.50;24.25;;;;;;;;5074800;28;62282;-74
2023/01/23 11:22:45;;;;;;;;;33.25;26.00;;;;;;;;5053140;28;62149;-76
2023/01/23 11:25:26;;;;;;;;;31.25;20.25;;;;;;;;5061072;28;61883;-75
2023/01/23 11:27:55;;;;;;;;;28.50;19.50;;;;;;;;5073847;27;61859;-75
2023/01/23 11:30:28;;;;;;;;;31.75;23.00;;;;;;;;5064361;28;63265;-76
2023/01/23 11:32:58;;;;;;;;;19.75;16.75;;;;;;;;5064414;27;61965;-77
2023/01/23 11:35:28;;;;;;;;;29.75;23.75;;;;;;;;5072587;28;62062;-76
2023/01/23 11:37:55;;;;;;;;;21.75;19.00;;;;;;;;5075787;28;62100;-76
2023/01/23 11:40:21;;;;;;;;;18.25;14.75;;;;;;;;5062735;28;62232;-77
2023/01/23 11:42:46;;;;;;;;;20.50;19.00;;;;;;;;5076487;28;61772;-75
2023/01/23 11:45:29;;;;;;;;;21.50;19.75;;;;;;;;5078592;27;61829;-76
2023/01/23 11:48:12;;;;;;;;;33.00;23.25;;;;;;;;5063066;28;62236;-75
2023/01/23 11:50:50;;;;;;;;;28.50;21.00;;;;;;;;5070974;27;62064;-75
2023/01/23 11:53:27;;;;;;;;;29.50;20.50;;;;;;;;5074461;27;62005;-75
2023/01/23 11:56:11;;;;;;;;;32.00;23.50;;;;;;;;5085277;27;61776;-76
2023/01/23 11:58:42;;;;;;;;;30.50;23.75;;;;;;;;5100161;27;61835;-75
2023/01/23 12:01:11;;;;;;;;;33.00;21.25;;;;;;;;5090273;27;62120;-75
2023/01/23 12:03:55;;;;;;;;;34.75;25.75;;;;;;;;5098128;27;62022;-75
2023/01/23 12:06:20;;;;;;;;;26.00;20.75;;;;;;;;5112980;27;62032;-75
2023/01/23 12:08:45;;;;;;;;;20.25;17.75;;;;;;;;5097597;27;61924;-76
2023/01/23 12:11:15;;;;;;;;;26.75;20.50;;;;;;;;5085347;27;63958;-75
2023/01/23 12:13:52;;;;;;;;;30.25;20.00;;;;;;;;5092381;27;61913;-76
2023/01/23 12:16:18;;;;;;;;;33.75;20.25;;;;;;;;5091482;27;61926;-75
2023/01/23 12:19:06;;;;;;;;;27.75;21.00;;;;;;;;5094466;27;61938;-75
2023/01/23 12:21:38;;;;;;;;;28.50;20.50;;;;;;;;5091703;27;61964;-75
2023/01/23 12:24:10;;;;;;;;;34.00;22.75;;;;;;;;5094114;27;62329;-75
2023/01/23 12:26:39;;;;;;;;;25.75;21.50;;;;;;;;5093086;27;61819;-75
2023/01/23 12:29:20;;;;;;;;;25.50;17.75;;;;;;;;5093480;27;62273;-75
2023/01/23 12:31:46;;;;;;;;;31.00;24.00;;;;;;;;5101377;27;61898;-75
2023/01/23 12:34:29;;;;;;;;;24.50;18.25;;;;;;;;5091133;27;62498;-75
2023/01/23 12:37:08;;;;;;;;;36.75;24.25;;;;;;;;5090431;27;61914;-75
2023/01/23 12:39:53;;;;;;;;;28.00;22.25;;;;;;;;5100281;27;61917;-75
2023/01/23 12:42:40;;;;;;;;;27.25;20.50;;;;;;;;5097792;27;61752;-75
2023/01/23 12:45:13;;;;;;;;;20.75;18.00;;;;;;;;5090192;27;62037;-75
2023/01/23 12:47:43;;;;;;;;;23.25;16.75;;;;;;;;5086356;27;61832;-75
2023/01/23 12:50:27;;;;;;;;;20.25;18.50;;;;;;;;5094067;27;61785;-75
2023/01/23 12:52:56;;;;;;;;;24.25;20.75;;;;;;;;5097605;27;62926;-75
2023/01/23 12:55:25;;;;;;;;;23.50;20.25;;;;;;;;5082083;27;61728;-75
2023/01/23 12:57:55;;;;;;;;;28.50;24.00;;;;;;;;5096850;27;61699;-75
2023/01/23 13:00:26;;;;;;;;;26.00;17.00;;;;;;;;5094565;27;62202;-75
2023/01/23 13:03:10;;;;;;;;;26.00;21.25;;;;;;;;5095163;27;62064;-75
2023/01/23 13:05:42;;;;;;;;;32.25;20.25;;;;;;;;5095958;27;61725;-75
2023/01/23 13:08:27;;;;;;;;;26.00;17.00;;;;;;;;5100668;27;62168;-75
2023/01/23 13:13:45;;;;;;;;;29.25;18.00;;;;;;;;5104772;27;62519;-75
2023/01/23 13:16:12;;;;;;;;;21.50;18.75;;;;;;;;5099755;27;62063;-75
2023/01/23 13:27:30;;;;;;;;;24.50;16.75;;;;;;;;5033645;28;61991;-75
2023/01/23 13:29:57;;;;;;;;;31.50;18.00;;;;;;;;5033245;28;62199;-74
2023/01/23 13:32:27;;;;;;;;;18.00;17.00;;;;;;;;5037887;28;62123;-75
2023/01/23 13:34:52;;;;;;;;;29.25;20.50;;;;;;;;5017354;28;63428;-75
2023/01/23 13:37:23;;;;;;;;;29.00;16.50;;;;;;;;5023304;28;62079;-75
2023/01/23 13:40:00;;;;;;;;;25.00;16.75;;;;;;;;5033250;28;62007;-75
2023/01/23 13:42:25;;;;;;;;;20.75;16.75;;;;;;;;5033045;28;62346;-75
2023/01/23 13:45:09;;;;;;;;;28.25;18.25;;;;;;;;5027533;28;62804;-75
2023/01/23 13:50:33;;;;;;;;;16.25;12.00;;;;;;;;5033863;28;61872;-75
2023/01/23 13:58:35;;;;;;;;;19.50;13.75;;;;;;;;5034902;28;61851;-75
2023/01/23 14:06:35;;;;;;;;;28.50;13.75;;;;;;;;5081504;27;62371;-75
2023/01/23 14:09:00;;;;;;;;;17.25;17.00;;;;;;;;5096683;27;61913;-75
2023/01/23 14:11:33;;;;;;;;;18.75;13.00;;;;;;;;5087867;27;62108;-75
2023/01/23 14:16:46;;;;;;;;;19.25;13.75;;;;;;;;5093492;27;61882;-75
2023/01/23 14:19:18;;;;;;;;;12.25;12.25;;;;;;;;5098300;27;62741;-75
2023/01/23 14:21:56;;;;;;;;;23.50;15.75;;;;;;;;5097453;27;62295;-74
2023/01/23 14:24:22;;;;;;;;;20.50;12.00;;;;;;;;5095530;27;61828;-75
2023/01/23 14:26:48;;;;;;;;;23.00;16.00;;;;;;;;5095354;27;61774;-75
2023/01/23 14:29:21;;;;;;;;;22.00;11.75;;;;;;;;5084912;27;62793;-75
2023/01/23 14:31:46;;;;;;;;;20.00;15.00;;;;;;;;5084794;27;61997;-75
2023/01/23 14:34:16;;;;;;;;;22.75;16.75;;;;;;;;5092079;27;61844;-75
2023/01/23 14:36:43;;;;;;;;;24.25;16.75;;;;;;;;5080084;27;62836;-75
2023/01/23 14:39:28;;;;;;;;;33.25;17.25;;;;;;;;5081147;27;62084;-75
2023/01/23 14:41:58;;;;;;;;;21.50;18.50;;;;;;;;5095457;27;61730;-75
2023/01/23 14:44:26;;;;;;;;;17.75;10.50;;;;;;;;5101150;27;61785;-75
2023/01/23 14:46:53;;;;;;;;;19.50;14.25;;;;;;;;5096619;27;62146;-75
2023/01/23 14:49:24;;;;;;;;;16.00;12.50;;;;;;;;5081793;28;61829;-74
2023/01/23 14:51:54;;;;;;;;;24.25;18.50;;;;;;;;5082173;27;62128;-74
2023/01/23 14:54:19;;;;;;;;;18.50;13.75;;;;;;;;5097423;27;61972;-75